Time;durP1;ratioP1;P1;durP2;ratioP2;P2;SDS_P1;SDS_P2;PMS_P1;PMS_P2;Temp;Humidity;BMP_temperature;BMP_pressure;BME280_temperature;BME280_humidity;BME280_pressure;Samples;Min_cycle;Max_cycle;Signal;HPM_P1;HPM_P2
2021/06/11 00:00:18;;;;;;;20.20;17.98;;;;;;;;;;5064040;28;20181;-73
2021/06/11 00:02:43;;;;;;;20.50;18.30;;;;;;;;;;5061669;28;20205;-73
2021/06/11 00:05:09;;;;;;;21.07;18.03;;;;;;;;;;5057887;28;20197;-73
2021/06/11 00:07:34;;;;;;;22.10;19.77;;;;;;;;;;5064124;28;20939;-73
2021/06/11 00:10:00;;;;;;;23.85;20.77;;;;;;;;;;5065944;28;20193;-73
2021/06/11 00:12:26;;;;;;;24.00;21.52;;;;;;;;;;5060705;28;20183;-73
2021/06/11 00:14:51;;;;;;;25.80;21.88;;;;;;;;;;5064084;28;20200;-73
2021/06/11 00:17:16;;;;;;;24.67;20.37;;;;;;;;;;5066621;28;20193;-73
2021/06/11 00:19:41;;;;;;;27.25;23.70;;;;;;;;;;5056156;28;20524;-73
2021/06/11 00:22:06;;;;;;;26.87;23.97;;;;;;;;;;5065655;28;20425;-73
2021/06/11 00:24:32;;;;;;;30.25;24.17;;;;;;;;;;5067855;28;20475;-73
2021/06/11 00:26:57;;;;;;;24.35;20.48;;;;;;;;;;5063739;28;20645;-73
2021/06/11 00:29:22;;;;;;;24.40;21.48;;;;;;;;;;5068983;28;20547;-73
2021/06/11 00:31:47;;;;;;;26.38;22.63;;;;;;;;;;5063044;28;20553;-73
2021/06/11 00:34:13;;;;;;;28.97;23.10;;;;;;;;;;5053261;28;20201;-73
2021/06/11 00:36:38;;;;;;;31.15;26.65;;;;;;;;;;5064942;28;20429;-73
2021/06/11 00:39:04;;;;;;;29.58;26.25;;;;;;;;;;5063563;28;20228;-73
2021/06/11 00:41:29;;;;;;;29.90;26.70;;;;;;;;;;5067380;28;20177;-73
2021/06/11 00:43:54;;;;;;;30.80;26.52;;;;;;;;;;5069763;28;20688;-73
2021/06/11 00:46:19;;;;;;;25.45;22.77;;;;;;;;;;5062928;28;20650;-73
2021/06/11 00:48:44;;;;;;;33.60;27.87;;;;;;;;;;5063402;28;20728;-73
2021/06/11 00:51:10;;;;;;;31.70;27.43;;;;;;;;;;5071438;28;20425;-73
2021/06/11 00:53:35;;;;;;;34.10;28.00;;;;;;;;;;5070162;28;20599;-73
2021/06/11 00:56:00;;;;;;;35.92;29.13;;;;;;;;;;5067602;28;20295;-73
2021/06/11 00:58:25;;;;;;;37.35;29.63;;;;;;;;;;5066194;28;20434;-73
2021/06/11 01:00:50;;;;;;;42.88;35.10;;;;;;;;;;5062015;28;20185;-73
2021/06/11 01:03:17;;;;;;;43.15;33.67;;;;;;;;;;5069407;28;20553;-73
2021/06/11 01:05:43;;;;;;;41.60;34.35;;;;;;;;;;5065923;28;20188;-73
2021/06/11 01:08:10;;;;;;;48.03;34.85;;;;;;;;;;5067194;28;20169;-73
2021/06/11 01:10:35;;;;;;;41.63;32.65;;;;;;;;;;5080061;28;20177;-72
2021/06/11 01:13:01;;;;;;;41.85;32.55;;;;;;;;;;5079358;28;20708;-72
2021/06/11 01:15:26;;;;;;;41.65;32.78;;;;;;;;;;5083024;28;20215;-72
2021/06/11 01:17:53;;;;;;;46.33;35.15;;;;;;;;;;5088604;28;20180;-72
2021/06/11 01:20:19;;;;;;;42.13;34.40;;;;;;;;;;5072898;28;20518;-72
2021/06/11 01:23:02;;;;;;;42.00;33.08;;;;;;;;;;5081869;28;20178;-72
2021/06/11 01:25:34;;;;;;;33.78;27.88;;;;;;;;;;5080772;28;20181;-73
2021/06/11 01:28:00;;;;;;;36.30;29.20;;;;;;;;;;5072758;28;20184;-73
2021/06/11 01:30:26;;;;;;;34.33;27.90;;;;;;;;;;5065929;28;20197;-73
2021/06/11 01:32:53;;;;;;;34.83;28.15;;;;;;;;;;5067784;28;20194;-73
2021/06/11 01:35:24;;;;;;;34.80;29.13;;;;;;;;;;5052948;28;20730;-72
2021/06/11 01:37:53;;;;;;;32.33;26.55;;;;;;;;;;5047973;28;20190;-72
2021/06/11 01:40:18;;;;;;;27.67;24.30;;;;;;;;;;5050268;28;20653;-72
2021/06/11 01:42:46;;;;;;;28.30;24.50;;;;;;;;;;5050217;28;20863;-72
2021/06/11 01:45:11;;;;;;;26.90;23.38;;;;;;;;;;5049807;28;20208;-73
2021/06/11 01:47:38;;;;;;;31.48;27.08;;;;;;;;;;5050805;28;20881;-73
2021/06/11 01:50:05;;;;;;;29.95;26.02;;;;;;;;;;5048019;28;20185;-73
2021/06/11 01:52:31;;;;;;;30.88;25.30;;;;;;;;;;5047809;28;21722;-73
2021/06/11 01:54:56;;;;;;;36.17;29.42;;;;;;;;;;5047258;28;20194;-73
2021/06/11 01:57:22;;;;;;;37.22;29.88;;;;;;;;;;5056043;28;20177;-73
2021/06/11 01:59:47;;;;;;;39.10;30.60;;;;;;;;;;5054323;28;20639;-73
2021/06/11 02:02:12;;;;;;;43.72;34.53;;;;;;;;;;5053808;28;20185;-72
2021/06/11 02:04:39;;;;;;;45.40;37.35;;;;;;;;;;5048853;28;20931;-72
2021/06/11 02:07:08;;;;;;;40.95;34.08;;;;;;;;;;5049852;28;21859;-71
2021/06/11 02:09:33;;;;;;;42.67;34.65;;;;;;;;;;5047332;28;20201;-71
2021/06/11 02:12:00;;;;;;;42.28;35.22;;;;;;;;;;5054623;28;20227;-72
2021/06/11 02:14:25;;;;;;;41.97;32.72;;;;;;;;;;5049959;28;20676;-72
2021/06/11 02:16:51;;;;;;;39.42;31.88;;;;;;;;;;5050907;28;20315;-72
2021/06/11 02:19:17;;;;;;;47.95;37.10;;;;;;;;;;5048251;28;20186;-72
2021/06/11 02:21:43;;;;;;;43.20;34.65;;;;;;;;;;5050176;28;20322;-72
2021/06/11 02:24:08;;;;;;;40.80;32.05;;;;;;;;;;5047850;28;20703;-72
2021/06/11 02:26:34;;;;;;;35.78;28.88;;;;;;;;;;5047770;28;21056;-72
2021/06/11 02:28:59;;;;;;;37.38;29.08;;;;;;;;;;5050610;28;20173;-72
2021/06/11 02:31:25;;;;;;;28.77;25.30;;;;;;;;;;5055867;28;20185;-72
2021/06/11 02:33:50;;;;;;;33.83;26.70;;;;;;;;;;5048311;28;20207;-72
2021/06/11 02:36:15;;;;;;;33.22;25.77;;;;;;;;;;5054646;28;20193;-72
2021/06/11 02:38:40;;;;;;;35.05;25.23;;;;;;;;;;5046273;28;20274;-72
2021/06/11 02:41:06;;;;;;;27.17;21.80;;;;;;;;;;5056500;28;20234;-72
2021/06/11 02:43:33;;;;;;;30.63;22.27;;;;;;;;;;5055031;28;20205;-72
2021/06/11 02:46:15;;;;;;;25.77;20.23;;;;;;;;;;5046736;28;20596;-72
2021/06/11 02:48:44;;;;;;;28.17;20.95;;;;;;;;;;5048784;28;20906;-72
2021/06/11 02:51:25;;;;;;;27.02;19.08;;;;;;;;;;5046834;28;20322;-72
2021/06/11 02:53:50;;;;;;;28.27;19.60;;;;;;;;;;5047554;28;20817;-73
2021/06/11 02:56:21;;;;;;;29.13;19.00;;;;;;;;;;5047658;28;20181;-72
2021/06/11 02:58:51;;;;;;;30.60;18.98;;;;;;;;;;5049593;28;20197;-72
2021/06/11 03:01:18;;;;;;;32.38;20.48;;;;;;;;;;5062185;28;20208;-73
2021/06/11 03:03:43;;;;;;;33.40;21.50;;;;;;;;;;5057991;28;20343;-74
2021/06/11 03:06:10;;;;;;;31.02;19.60;;;;;;;;;;5047286;28;20260;-73
2021/06/11 03:08:38;;;;;;;30.23;18.55;;;;;;;;;;5047641;28;20181;-72
2021/06/11 03:11:06;;;;;;;30.73;18.55;;;;;;;;;;5054416;28;20544;-73
2021/06/11 03:13:32;;;;;;;30.67;18.52;;;;;;;;;;5047842;28;20679;-73
2021/06/11 03:15:58;;;;;;;26.58;16.98;;;;;;;;;;5049315;28;20272;-73
2021/06/11 03:18:29;;;;;;;30.05;18.88;;;;;;;;;;5049713;28;20233;-73
2021/06/11 03:20:56;;;;;;;27.63;17.17;;;;;;;;;;5054614;28;20185;-72
2021/06/11 03:23:24;;;;;;;30.30;16.88;;;;;;;;;;5047187;28;20686;-73
2021/06/11 03:25:51;;;;;;;40.08;17.23;;;;;;;;;;5052582;28;20723;-73
2021/06/11 03:28:21;;;;;;;27.00;17.35;;;;;;;;;;5053057;28;20623;-72
2021/06/11 03:30:54;;;;;;;28.58;14.93;;;;;;;;;;5049863;28;20197;-72
2021/06/11 03:33:21;;;;;;;23.20;13.38;;;;;;;;;;5050088;28;20212;-73
2021/06/11 03:35:58;;;;;;;17.30;13.15;;;;;;;;;;5057869;28;21367;-72
2021/06/11 03:38:25;;;;;;;22.50;13.15;;;;;;;;;;5049446;28;20196;-73
2021/06/11 03:40:51;;;;;;;28.33;14.20;;;;;;;;;;5060106;28;20196;-73
2021/06/11 03:43:17;;;;;;;31.55;13.98;;;;;;;;;;5054284;28;20208;-72
2021/06/11 03:45:43;;;;;;;25.58;13.80;;;;;;;;;;5047824;28;20180;-72
2021/06/11 03:48:12;;;;;;;19.45;12.85;;;;;;;;;;5058802;28;20177;-72
2021/06/11 03:50:38;;;;;;;23.55;12.68;;;;;;;;;;5050829;28;20735;-72
2021/06/11 03:53:04;;;;;;;17.02;11.23;;;;;;;;;;5048643;28;20708;-72
2021/06/11 03:55:31;;;;;;;15.95;11.27;;;;;;;;;;5050424;28;20180;-72
2021/06/11 03:58:03;;;;;;;22.65;12.20;;;;;;;;;;5051276;28;20232;-73
2021/06/11 04:00:29;;;;;;;29.83;14.13;;;;;;;;;;5052969;28;20188;-72
2021/06/11 04:02:54;;;;;;;45.53;14.43;;;;;;;;;;5050124;28;20211;-72
2021/06/11 04:05:19;;;;;;;36.22;17.35;;;;;;;;;;5056806;28;20217;-72
2021/06/11 04:07:52;;;;;;;37.85;20.10;;;;;;;;;;5054375;28;20191;-73
2021/06/11 04:10:27;;;;;;;41.88;21.90;;;;;;;;;;5058690;28;20186;-72
2021/06/11 04:12:53;;;;;;;50.40;22.27;;;;;;;;;;5050652;28;20201;-72
2021/06/11 04:15:18;;;;;;;74.07;25.30;;;;;;;;;;5050822;28;20179;-73
2021/06/11 04:17:46;;;;;;;66.72;25.27;;;;;;;;;;5052237;28;20185;-71
2021/06/11 04:20:13;;;;;;;62.03;25.20;;;;;;;;;;5048376;28;20607;-71
2021/06/11 04:22:41;;;;;;;52.78;26.02;;;;;;;;;;5049714;28;20177;-72
2021/06/11 04:25:07;;;;;;;52.25;24.15;;;;;;;;;;5052478;28;20196;-72
2021/06/11 04:27:39;;;;;;;53.75;25.20;;;;;;;;;;5054373;28;20182;-72
2021/06/11 04:30:05;;;;;;;74.97;25.55;;;;;;;;;;5054241;28;20245;-72
2021/06/11 04:32:30;;;;;;;63.13;26.15;;;;;;;;;;5068836;28;20173;-72
2021/06/11 04:34:55;;;;;;;59.03;27.17;;;;;;;;;;5070117;28;20204;-73
2021/06/11 04:37:20;;;;;;;67.15;26.23;;;;;;;;;;5054935;28;21956;-72
2021/06/11 04:39:46;;;;;;;67.97;29.73;;;;;;;;;;5057769;28;20196;-73
2021/06/11 04:42:11;;;;;;;78.55;29.15;;;;;;;;;;5056223;28;20888;-72
2021/06/11 04:44:36;;;;;;;59.58;29.80;;;;;;;;;;5051318;28;20212;-73
2021/06/11 04:47:01;;;;;;;68.03;28.17;;;;;;;;;;5053878;28;20198;-72
2021/06/11 04:49:27;;;;;;;49.03;25.45;;;;;;;;;;5052112;28;20659;-72
2021/06/11 04:51:52;;;;;;;46.65;24.40;;;;;;;;;;5057108;28;20181;-72
2021/06/11 04:54:17;;;;;;;46.85;24.75;;;;;;;;;;5053550;28;20205;-73
2021/06/11 04:56:42;;;;;;;50.17;23.67;;;;;;;;;;5064341;28;20212;-71
2021/06/11 04:59:07;;;;;;;50.30;24.42;;;;;;;;;;5051529;28;20442;-72
2021/06/11 05:01:33;;;;;;;57.85;26.15;;;;;;;;;;5052579;28;20271;-72
2021/06/11 05:03:58;;;;;;;40.42;23.30;;;;;;;;;;5050478;28;20205;-72
2021/06/11 05:06:24;;;;;;;49.45;26.58;;;;;;;;;;5057296;28;20681;-72
2021/06/11 05:08:49;;;;;;;48.92;26.05;;;;;;;;;;5054874;28;20182;-72
2021/06/11 05:11:14;;;;;;;44.63;25.77;;;;;;;;;;5061947;28;20200;-72
2021/06/11 05:13:39;;;;;;;40.13;26.30;;;;;;;;;;5051098;28;20845;-72
2021/06/11 05:16:05;;;;;;;41.08;24.80;;;;;;;;;;5060807;28;20555;-73
2021/06/11 05:18:30;;;;;;;46.75;24.83;;;;;;;;;;5052847;28;20574;-72
2021/06/11 05:20:55;;;;;;;33.22;23.42;;;;;;;;;;5054198;28;20311;-72
2021/06/11 05:23:21;;;;;;;37.42;25.17;;;;;;;;;;5052303;28;20287;-72
2021/06/11 05:25:47;;;;;;;31.35;23.48;;;;;;;;;;5051533;28;20592;-72
2021/06/11 05:28:13;;;;;;;31.50;22.05;;;;;;;;;;5057814;28;21184;-72
2021/06/11 05:30:38;;;;;;;29.38;20.98;;;;;;;;;;5056720;28;20189;-72
2021/06/11 05:33:04;;;;;;;27.70;19.85;;;;;;;;;;5050841;28;20725;-72
2021/06/11 05:35:29;;;;;;;24.80;19.90;;;;;;;;;;5054060;28;20249;-72
2021/06/11 05:37:58;;;;;;;27.55;20.15;;;;;;;;;;5056692;28;20247;-72
2021/06/11 05:40:23;;;;;;;27.98;20.33;;;;;;;;;;5056072;28;20220;-72
2021/06/11 05:42:49;;;;;;;26.50;19.40;;;;;;;;;;5054897;28;20651;-73
2021/06/11 05:45:14;;;;;;;26.83;18.08;;;;;;;;;;5054407;28;20513;-73
2021/06/11 05:47:40;;;;;;;25.80;21.15;;;;;;;;;;5059113;28;20607;-72
2021/06/11 05:50:06;;;;;;;27.08;19.95;;;;;;;;;;5052263;28;20209;-72
2021/06/11 05:52:31;;;;;;;22.77;18.05;;;;;;;;;;5053023;28;20189;-72
2021/06/11 05:54:56;;;;;;;24.03;18.30;;;;;;;;;;5055763;28;20205;-72
2021/06/11 05:57:21;;;;;;;25.27;20.42;;;;;;;;;;5053357;28;20430;-72
2021/06/11 05:59:46;;;;;;;26.63;20.70;;;;;;;;;;5056029;28;20184;-72
2021/06/11 06:02:11;;;;;;;25.35;19.75;;;;;;;;;;5056768;28;20425;-72
2021/06/11 06:04:37;;;;;;;26.40;21.30;;;;;;;;;;5055153;28;20550;-72
2021/06/11 06:07:02;;;;;;;23.02;20.02;;;;;;;;;;5059419;28;20182;-72
2021/06/11 06:09:28;;;;;;;25.33;20.23;;;;;;;;;;5065661;28;20184;-72
2021/06/11 06:11:53;;;;;;;22.97;19.90;;;;;;;;;;5053703;28;20182;-72
2021/06/11 06:14:18;;;;;;;23.53;20.00;;;;;;;;;;5054980;28;20478;-72
2021/06/11 06:16:43;;;;;;;24.08;19.35;;;;;;;;;;5050721;28;20430;-72
2021/06/11 06:19:08;;;;;;;23.70;20.83;;;;;;;;;;5049579;28;20192;-72
2021/06/11 06:21:34;;;;;;;23.05;20.05;;;;;;;;;;5053773;28;20190;-72
2021/06/11 06:23:59;;;;;;;26.20;21.65;;;;;;;;;;5050414;28;20208;-72
2021/06/11 06:26:24;;;;;;;26.80;22.33;;;;;;;;;;5052333;28;20189;-72
2021/06/11 06:28:50;;;;;;;27.75;22.20;;;;;;;;;;5053797;28;20173;-71
2021/06/11 06:31:15;;;;;;;25.23;22.05;;;;;;;;;;5055022;28;20571;-71
2021/06/11 06:33:40;;;;;;;26.33;21.70;;;;;;;;;;5051101;28;20204;-72
2021/06/11 06:36:07;;;;;;;27.80;22.73;;;;;;;;;;5052029;28;20420;-72
2021/06/11 06:38:32;;;;;;;29.00;22.92;;;;;;;;;;5052382;28;20430;-72
2021/06/11 06:41:01;;;;;;;30.60;23.90;;;;;;;;;;5060558;28;20177;-72
2021/06/11 06:43:26;;;;;;;26.60;22.23;;;;;;;;;;5051762;28;20220;-72
2021/06/11 06:45:52;;;;;;;33.33;24.08;;;;;;;;;;5052524;28;20173;-72
2021/06/11 06:48:17;;;;;;;35.72;27.58;;;;;;;;;;5054541;28;20736;-73
2021/06/11 06:50:42;;;;;;;34.75;26.95;;;;;;;;;;5059188;28;20634;-73
2021/06/11 06:53:08;;;;;;;36.87;26.67;;;;;;;;;;5050772;28;20602;-71
2021/06/11 06:55:33;;;;;;;34.38;25.83;;;;;;;;;;5061005;28;20512;-71
2021/06/11 06:57:58;;;;;;;36.70;28.10;;;;;;;;;;5051203;28;20315;-72
2021/06/11 07:00:24;;;;;;;35.47;27.53;;;;;;;;;;5056382;28;20429;-72
2021/06/11 07:02:49;;;;;;;43.17;32.22;;;;;;;;;;5049573;28;20632;-72
2021/06/11 07:05:15;;;;;;;40.07;31.90;;;;;;;;;;5056168;28;20205;-72
2021/06/11 07:07:40;;;;;;;43.45;33.47;;;;;;;;;;5052149;28;20429;-72
2021/06/11 07:10:06;;;;;;;42.50;32.33;;;;;;;;;;5060290;28;20188;-71
2021/06/11 07:12:32;;;;;;;41.58;32.10;;;;;;;;;;5055674;28;20182;-71
2021/06/11 07:14:57;;;;;;;38.83;30.83;;;;;;;;;;5055642;28;20602;-71
2021/06/11 07:17:22;;;;;;;38.20;30.30;;;;;;;;;;5052462;28;20189;-71
2021/06/11 07:19:47;;;;;;;35.05;29.60;;;;;;;;;;5056748;28;20469;-71
2021/06/11 07:22:13;;;;;;;34.00;28.75;;;;;;;;;;5053620;28;20292;-72
2021/06/11 07:24:38;;;;;;;33.38;28.92;;;;;;;;;;5051444;28;20211;-72
2021/06/11 07:27:04;;;;;;;31.88;27.80;;;;;;;;;;5052473;28;20177;-71
2021/06/11 07:29:29;;;;;;;32.03;28.33;;;;;;;;;;5049698;28;20238;-72
2021/06/11 07:31:55;;;;;;;34.38;28.67;;;;;;;;;;5053209;28;20173;-72
2021/06/11 07:34:20;;;;;;;31.38;26.98;;;;;;;;;;5052664;28;20276;-72
2021/06/11 07:36:46;;;;;;;34.55;28.02;;;;;;;;;;5050231;28;20196;-72
2021/06/11 07:39:11;;;;;;;31.27;25.77;;;;;;;;;;5049569;28;20205;-72
2021/06/11 07:41:36;;;;;;;31.13;27.33;;;;;;;;;;5058907;28;21832;-72
2021/06/11 07:44:01;;;;;;;34.07;28.10;;;;;;;;;;5050146;28;20197;-72
2021/06/11 07:46:27;;;;;;;33.72;28.92;;;;;;;;;;5052439;28;20418;-73
2021/06/11 07:48:52;;;;;;;33.03;26.67;;;;;;;;;;5050190;28;20196;-72
2021/06/11 07:51:17;;;;;;;32.67;26.10;;;;;;;;;;5051461;28;20438;-73
2021/06/11 07:53:42;;;;;;;32.20;27.13;;;;;;;;;;5048409;28;20280;-72
2021/06/11 07:56:08;;;;;;;31.75;26.33;;;;;;;;;;5049061;28;20189;-71
2021/06/11 07:58:33;;;;;;;29.88;25.50;;;;;;;;;;5049753;28;20181;-70
2021/06/11 08:00:59;;;;;;;31.50;26.13;;;;;;;;;;5056196;28;20189;-72
2021/06/11 08:03:24;;;;;;;31.27;26.67;;;;;;;;;;5052579;28;20825;-71
2021/06/11 08:05:49;;;;;;;26.58;23.30;;;;;;;;;;5055530;28;20189;-72
2021/06/11 08:08:15;;;;;;;27.17;23.77;;;;;;;;;;5054612;28;20247;-72
2021/06/11 08:10:40;;;;;;;27.33;24.35;;;;;;;;;;5052064;28;20437;-72
2021/06/11 08:13:06;;;;;;;27.57;23.70;;;;;;;;;;5051186;28;20209;-72
2021/06/11 08:15:31;;;;;;;28.95;24.08;;;;;;;;;;5054354;28;20442;-72
2021/06/11 08:17:56;;;;;;;29.48;26.15;;;;;;;;;;5054148;28;21856;-72
2021/06/11 08:20:21;;;;;;;30.67;27.30;;;;;;;;;;5050521;28;20674;-72
2021/06/11 08:22:47;;;;;;;31.25;27.38;;;;;;;;;;5052788;28;20184;-72
2021/06/11 08:25:12;;;;;;;31.98;28.48;;;;;;;;;;5050015;28;20197;-71
2021/06/11 08:27:38;;;;;;;33.85;26.73;;;;;;;;;;5052449;28;20180;-73
2021/06/11 08:30:04;;;;;;;31.77;27.02;;;;;;;;;;5053090;28;20181;-73
2021/06/11 08:32:30;;;;;;;27.55;24.80;;;;;;;;;;5052129;28;20209;-72
2021/06/11 08:34:55;;;;;;;29.35;25.08;;;;;;;;;;5054216;28;20291;-72
2021/06/11 08:37:21;;;;;;;28.50;24.70;;;;;;;;;;5052954;28;20566;-73
2021/06/11 08:39:49;;;;;;;26.73;23.63;;;;;;;;;;5052567;28;20498;-72
2021/06/11 08:42:15;;;;;;;26.75;23.80;;;;;;;;;;5050252;28;20789;-72
2021/06/11 08:44:42;;;;;;;26.13;23.42;;;;;;;;;;5053680;28;20227;-73
2021/06/11 08:47:07;;;;;;;22.20;20.00;;;;;;;;;;5053942;28;20252;-72
2021/06/11 08:49:32;;;;;;;23.58;21.08;;;;;;;;;;5050883;28;20248;-72
2021/06/11 08:51:59;;;;;;;23.55;21.02;;;;;;;;;;5050508;28;20177;-72
2021/06/11 08:54:25;;;;;;;22.17;19.92;;;;;;;;;;5051125;28;20201;-72
2021/06/11 08:56:51;;;;;;;23.42;21.05;;;;;;;;;;5053598;28;20210;-72
2021/06/11 08:59:16;;;;;;;23.10;20.67;;;;;;;;;;5050689;28;20242;-72
2021/06/11 09:01:41;;;;;;;24.27;20.33;;;;;;;;;;5050390;28;21030;-72
2021/06/11 09:04:07;;;;;;;22.80;20.40;;;;;;;;;;5051614;28;20232;-72
2021/06/11 09:06:32;;;;;;;23.33;20.90;;;;;;;;;;5059722;28;20660;-72
2021/06/11 09:08:58;;;;;;;23.92;20.92;;;;;;;;;;5046927;28;20881;-73
2021/06/11 09:11:28;;;;;;;23.02;20.73;;;;;;;;;;5050850;28;21955;-72
2021/06/11 09:14:02;;;;;;;23.08;20.67;;;;;;;;;;5057509;28;20204;-72
2021/06/11 09:16:28;;;;;;;21.90;19.77;;;;;;;;;;5064023;28;20186;-72
2021/06/11 09:18:53;;;;;;;22.58;20.10;;;;;;;;;;5053687;28;20181;-72
2021/06/11 09:21:27;;;;;;;22.42;19.83;;;;;;;;;;5059182;28;20254;-73
2021/06/11 09:26:41;;;;;;;23.23;20.13;;;;;;;;;;5061413;28;20181;-73
2021/06/11 09:29:16;;;;;;;20.23;17.95;;;;;;;;;;5059028;28;20196;-72
2021/06/11 09:31:41;;;;;;;20.10;18.00;;;;;;;;;;5053129;28;20180;-73
2021/06/11 09:34:18;;;;;;;20.60;18.60;;;;;;;;;;5052175;28;20201;-72
2021/06/11 09:37:02;;;;;;;18.58;16.58;;;;;;;;;;5050659;28;20188;-72
2021/06/11 09:39:39;;;;;;;19.83;17.73;;;;;;;;;;5054539;28;20196;-72
2021/06/11 09:42:05;;;;;;;19.20;17.30;;;;;;;;;;5056414;28;20423;-73
2021/06/11 09:44:30;;;;;;;18.92;17.02;;;;;;;;;;5054533;28;20294;-73
2021/06/11 09:46:55;;;;;;;18.30;16.57;;;;;;;;;;5056726;28;20176;-74
2021/06/11 09:49:25;;;;;;;17.73;16.02;;;;;;;;;;5052697;28;20450;-72
2021/06/11 09:52:06;;;;;;;18.27;16.38;;;;;;;;;;5054956;28;20217;-72
2021/06/11 09:54:31;;;;;;;20.92;16.88;;;;;;;;;;5052567;28;20200;-73
2021/06/11 09:56:57;;;;;;;18.93;16.90;;;;;;;;;;5052556;28;20654;-73
2021/06/11 09:59:41;;;;;;;19.10;17.20;;;;;;;;;;5052631;28;20442;-72
2021/06/11 10:02:22;;;;;;;18.80;16.88;;;;;;;;;;5055597;28;20180;-74
2021/06/11 10:04:47;;;;;;;17.60;15.90;;;;;;;;;;5055606;28;20208;-74
2021/06/11 10:07:13;;;;;;;17.13;15.43;;;;;;;;;;5060000;28;20177;-74
2021/06/11 10:09:39;;;;;;;17.50;15.60;;;;;;;;;;5055337;28;20184;-73
2021/06/11 10:12:05;;;;;;;18.80;16.83;;;;;;;;;;5067808;28;20598;-73
2021/06/11 10:14:30;;;;;;;17.58;15.63;;;;;;;;;;5055138;28;20235;-72
2021/06/11 10:16:56;;;;;;;18.65;16.75;;;;;;;;;;5056127;28;20643;-74
2021/06/11 10:19:22;;;;;;;16.65;15.05;;;;;;;;;;5068991;28;20193;-71
2021/06/11 10:21:47;;;;;;;19.80;15.98;;;;;;;;;;5081672;28;20286;-71
2021/06/11 10:24:15;;;;;;;15.35;13.85;;;;;;;;;;5076429;28;20590;-72
2021/06/11 10:26:41;;;;;;;15.80;14.20;;;;;;;;;;5057729;28;20939;-73
2021/06/11 10:29:07;;;;;;;14.80;13.40;;;;;;;;;;5053584;28;22074;-73
2021/06/11 10:31:36;;;;;;;15.57;14.02;;;;;;;;;;5053293;28;20270;-72
2021/06/11 10:34:04;;;;;;;15.55;13.98;;;;;;;;;;5054363;28;20205;-73
2021/06/11 10:38:55;;;;;;;15.48;14.05;;;;;;;;;;5049773;28;20585;-73
2021/06/11 10:41:20;;;;;;;15.32;13.90;;;;;;;;;;5062990;28;20549;-73
2021/06/11 10:43:45;;;;;;;15.37;13.77;;;;;;;;;;5051846;28;20595;-73
2021/06/11 10:46:29;;;;;;;14.88;13.48;;;;;;;;;;5054092;28;20436;-73
2021/06/11 10:49:07;;;;;;;13.80;12.50;;;;;;;;;;5053216;28;20174;-72
2021/06/11 10:51:36;;;;;;;15.65;14.10;;;;;;;;;;5057365;28;20706;-72
2021/06/11 10:54:20;;;;;;;15.00;13.50;;;;;;;;;;5054585;28;20291;-73
2021/06/11 10:56:57;;;;;;;15.73;14.18;;;;;;;;;;5054373;28;20203;-72
2021/06/11 10:59:32;;;;;;;15.02;13.48;;;;;;;;;;5060846;28;20595;-72
2021/06/11 11:01:58;;;;;;;15.43;13.93;;;;;;;;;;5052498;28;20684;-72
2021/06/11 11:04:27;;;;;;;14.50;13.18;;;;;;;;;;5053044;28;20217;-72
2021/06/11 11:06:52;;;;;;;14.85;13.43;;;;;;;;;;5059601;28;20178;-73
2021/06/11 11:09:17;;;;;;;15.80;14.40;;;;;;;;;;5050177;28;20235;-73
2021/06/11 11:11:45;;;;;;;12.90;11.77;;;;;;;;;;5053226;28;20481;-72
2021/06/11 11:14:43;;;;;;;14.48;13.10;;;;;;;;;;5052572;28;20681;-73
2021/06/11 11:17:09;;;;;;;15.50;14.07;;;;;;;;;;5051872;28;20236;-73
2021/06/11 11:19:47;;;;;;;14.63;13.32;;;;;;;;;;5053343;28;20181;-73
2021/06/11 11:22:35;;;;;;;15.75;14.23;;;;;;;;;;5052702;28;20197;-72
2021/06/11 11:25:02;;;;;;;15.13;13.63;;;;;;;;;;5054729;28;20205;-73
2021/06/11 11:27:28;;;;;;;16.15;14.73;;;;;;;;;;5052279;28;20192;-72
2021/06/11 11:29:53;;;;;;;20.58;14.57;;;;;;;;;;5049515;28;20189;-72
2021/06/11 11:32:19;;;;;;;15.65;14.25;;;;;;;;;;5048855;28;21832;-72
2021/06/11 11:34:44;;;;;;;15.30;13.90;;;;;;;;;;5049289;28;20347;-73
2021/06/11 11:37:09;;;;;;;17.52;15.75;;;;;;;;;;5049530;28;20276;-72
2021/06/11 11:39:35;;;;;;;18.40;16.70;;;;;;;;;;5056081;28;20581;-72
2021/06/11 11:42:00;;;;;;;18.83;17.03;;;;;;;;;;5055430;28;20466;-72
2021/06/11 11:44:26;;;;;;;19.00;17.25;;;;;;;;;;5052218;28;20480;-73
2021/06/11 11:46:52;;;;;;;18.48;16.83;;;;;;;;;;5061601;28;20177;-73
2021/06/11 11:49:18;;;;;;;19.50;17.88;;;;;;;;;;5053991;28;20260;-72
2021/06/11 11:51:43;;;;;;;19.73;17.88;;;;;;;;;;5052670;28;20286;-73
2021/06/11 11:54:08;;;;;;;18.25;16.63;;;;;;;;;;5055215;28;20211;-72
2021/06/11 11:56:34;;;;;;;18.67;17.13;;;;;;;;;;5053081;28;20532;-74
2021/06/11 11:58:59;;;;;;;18.17;16.57;;;;;;;;;;5046661;28;20274;-73
2021/06/11 12:01:25;;;;;;;17.13;15.52;;;;;;;;;;5052962;28;21201;-73
2021/06/11 12:03:50;;;;;;;20.20;18.47;;;;;;;;;;5052847;28;20201;-73
2021/06/11 12:06:15;;;;;;;23.00;21.00;;;;;;;;;;5057150;28;20426;-71
2021/06/11 12:08:40;;;;;;;18.35;16.55;;;;;;;;;;5054260;28;20196;-72
2021/06/11 12:11:06;;;;;;;21.27;19.48;;;;;;;;;;5054966;28;20183;-72
2021/06/11 12:13:31;;;;;;;22.90;20.90;;;;;;;;;;5050111;28;20229;-72
2021/06/11 12:15:57;;;;;;;20.52;18.73;;;;;;;;;;5057859;28;20694;-74
2021/06/11 12:18:23;;;;;;;21.27;19.48;;;;;;;;;;5057311;28;20655;-72
2021/06/11 12:20:48;;;;;;;23.38;21.35;;;;;;;;;;5059169;28;20258;-72
2021/06/11 12:23:14;;;;;;;21.07;19.13;;;;;;;;;;5045984;28;20838;-74
2021/06/11 12:25:39;;;;;;;20.57;18.80;;;;;;;;;;5052940;28;20216;-72
2021/06/11 12:28:04;;;;;;;19.53;17.73;;;;;;;;;;5052723;28;20196;-71
2021/06/11 12:30:29;;;;;;;19.60;17.90;;;;;;;;;;5055370;28;20883;-73
2021/06/11 12:32:56;;;;;;;19.93;18.00;;;;;;;;;;5055054;28;20204;-72
2021/06/11 12:35:22;;;;;;;20.42;18.63;;;;;;;;;;5052831;28;20428;-72
2021/06/11 12:37:47;;;;;;;19.38;17.67;;;;;;;;;;5051365;28;20182;-73
2021/06/11 12:40:14;;;;;;;21.03;19.27;;;;;;;;;;5052976;28;20576;-73
2021/06/11 12:42:41;;;;;;;20.05;18.35;;;;;;;;;;5052893;28;20658;-73
2021/06/11 12:45:07;;;;;;;28.20;18.55;;;;;;;;;;5058416;28;20351;-73
2021/06/11 12:47:33;;;;;;;22.13;20.23;;;;;;;;;;5054412;28;20226;-74
2021/06/11 12:49:58;;;;;;;19.33;17.52;;;;;;;;;;5062781;28;20244;-72
2021/06/11 12:52:23;;;;;;;19.20;17.47;;;;;;;;;;5056203;28;20655;-73
2021/06/11 12:54:49;;;;;;;16.37;14.87;;;;;;;;;;5054824;28;20468;-73
2021/06/11 12:57:15;;;;;;;17.50;15.95;;;;;;;;;;5055499;28;20272;-73
2021/06/11 12:59:44;;;;;;;16.85;15.45;;;;;;;;;;5056687;28;20193;-72
2021/06/11 13:02:09;;;;;;;15.68;14.25;;;;;;;;;;5058699;28;20200;-72
2021/06/11 13:04:34;;;;;;;17.30;15.70;;;;;;;;;;5055834;28;20216;-72
2021/06/11 13:06:59;;;;;;;17.58;15.88;;;;;;;;;;5058687;28;20557;-73
2021/06/11 13:09:25;;;;;;;19.92;18.33;;;;;;;;;;5056407;28;20227;-73
2021/06/11 13:11:50;;;;;;;20.20;18.38;;;;;;;;;;5063854;28;20184;-72
2021/06/11 13:14:15;;;;;;;16.93;15.43;;;;;;;;;;5053584;28;20212;-72
2021/06/11 13:16:41;;;;;;;17.43;15.87;;;;;;;;;;5058988;28;20204;-72
2021/06/11 13:19:06;;;;;;;17.17;15.47;;;;;;;;;;5053154;28;20484;-73
2021/06/11 13:21:33;;;;;;;17.15;15.65;;;;;;;;;;5056949;28;20424;-73
2021/06/11 13:23:59;;;;;;;17.63;15.93;;;;;;;;;;5067283;28;20594;-73
2021/06/11 13:26:24;;;;;;;18.73;17.10;;;;;;;;;;5060676;28;20181;-72
2021/06/11 13:28:49;;;;;;;19.67;17.58;;;;;;;;;;5052706;28;20189;-71
2021/06/11 13:31:14;;;;;;;18.20;16.30;;;;;;;;;;5053437;28;20208;-72
2021/06/11 13:33:39;;;;;;;15.57;14.17;;;;;;;;;;5057335;28;20547;-72
2021/06/11 13:36:05;;;;;;;15.50;14.10;;;;;;;;;;5051927;28;20315;-72
2021/06/11 13:38:30;;;;;;;16.17;14.48;;;;;;;;;;5056573;28;20801;-71
2021/06/11 13:40:55;;;;;;;14.57;13.27;;;;;;;;;;5061625;28;20200;-73
2021/06/11 13:43:21;;;;;;;13.68;12.45;;;;;;;;;;5053907;28;20300;-72
2021/06/11 13:45:46;;;;;;;12.33;11.27;;;;;;;;;;5054286;28;20266;-72
2021/06/11 13:48:11;;;;;;;12.27;11.07;;;;;;;;;;5054173;28;22266;-73
2021/06/11 13:50:36;;;;;;;12.80;11.50;;;;;;;;;;5058854;28;20241;-73
2021/06/11 13:53:02;;;;;;;11.95;10.85;;;;;;;;;;5055375;28;20455;-73
2021/06/11 13:55:27;;;;;;;10.80;9.90;;;;;;;;;;5061732;28;20264;-73
2021/06/11 13:57:52;;;;;;;10.97;9.97;;;;;;;;;;5056011;28;20180;-73
2021/06/11 14:00:25;;;;;;;9.82;8.93;;;;;;;;;;5063571;28;20425;-73
2021/06/11 14:02:50;;;;;;;9.18;8.32;;;;;;;;;;5054252;28;20922;-72
2021/06/11 14:05:16;;;;;;;10.40;9.40;;;;;;;;;;5063481;28;20209;-72
2021/06/11 14:07:41;;;;;;;10.32;8.85;;;;;;;;;;5060653;28;20189;-72
2021/06/11 14:10:07;;;;;;;10.40;9.43;;;;;;;;;;5054447;28;20185;-71
2021/06/11 14:12:32;;;;;;;10.48;9.05;;;;;;;;;;5052614;28;20684;-72
2021/06/11 14:14:59;;;;;;;10.88;9.88;;;;;;;;;;5054221;28;20224;-71
2021/06/11 14:17:24;;;;;;;11.02;9.80;;;;;;;;;;5056852;28;20268;-72
2021/06/11 14:19:49;;;;;;;8.50;7.70;;;;;;;;;;5057224;28;20177;-72